Time;durP1;ratioP1;P1;durP2;ratioP2;P2;SDS_P1;SDS_P2;PMS_P1;PMS_P2;Temp;Humidity;BMP_temperature;BMP_pressure;BME280_temperature;BME280_humidity;BME280_pressure;Samples;Min_cycle;Max_cycle;Signal;HPM_P1;HPM_P2
2022/07/22 00:00:17;;;;;;;3.67;1.60;;;26.00;56.00;;;;;;5034828;28;20038;-83
2022/07/22 00:02:45;;;;;;;3.78;1.45;;;26.00;58.00;;;;;;5013321;28;20133;-83
2022/07/22 00:05:12;;;;;;;3.15;1.20;;;25.90;56.90;;;;;;5033028;28;20042;-85
2022/07/22 00:07:40;;;;;;;6.65;1.45;;;25.90;56.80;;;;;;5029063;28;20056;-84
2022/07/22 00:10:10;;;;;;;4.78;1.70;;;25.90;56.20;;;;;;5035408;28;20041;-84
2022/07/22 00:12:39;;;;;;;5.43;1.27;;;25.80;57.20;;;;;;5027835;28;20551;-85
2022/07/22 00:15:08;;;;;;;2.88;1.42;;;25.70;59.90;;;;;;5025458;28;20096;-85
2022/07/22 00:17:38;;;;;;;6.10;1.55;;;25.70;59.10;;;;;;5027486;28;20049;-85
2022/07/22 00:20:07;;;;;;;4.65;2.22;;;25.60;59.70;;;;;;5032511;28;20558;-85
2022/07/22 00:22:34;;;;;;;4.45;1.63;;;25.50;58.40;;;;;;5039361;28;20056;-85
2022/07/22 00:25:02;;;;;;;4.85;1.60;;;25.50;58.00;;;;;;5035418;28;20041;-85
2022/07/22 00:27:30;;;;;;;6.05;1.50;;;25.40;57.80;;;;;;5030276;28;20413;-85
2022/07/22 00:29:57;;;;;;;5.13;1.70;;;25.50;58.80;;;;;;5011333;28;20092;-85
2022/07/22 00:32:25;;;;;;;4.25;2.00;;;25.40;58.60;;;;;;5016792;28;20050;-85
2022/07/22 00:34:53;;;;;;;5.20;1.50;;;25.40;59.00;;;;;;5039205;28;20073;-85
2022/07/22 00:37:20;;;;;;;7.15;1.95;;;25.40;58.80;;;;;;5030964;28;20053;-85
2022/07/22 00:39:48;;;;;;;3.47;1.58;;;25.40;58.90;;;;;;5017468;28;20050;-85
2022/07/22 00:42:15;;;;;;;4.05;1.55;;;25.30;58.80;;;;;;5037474;28;20090;-85
2022/07/22 00:44:43;;;;;;;4.95;1.85;;;25.20;59.10;;;;;;5030281;28;20045;-85
2022/07/22 00:47:12;;;;;;;5.82;1.70;;;25.20;59.90;;;;;;5028870;28;20137;-84
2022/07/22 00:49:39;;;;;;;5.20;1.88;;;25.20;60.10;;;;;;5033586;28;20413;-85
2022/07/22 00:52:07;;;;;;;4.15;1.63;;;25.10;59.60;;;;;;5014251;28;20046;-85
2022/07/22 00:54:37;;;;;;;4.28;1.63;;;25.10;59.50;;;;;;5027143;28;20034;-83
2022/07/22 00:57:04;;;;;;;5.50;1.80;;;25.00;59.60;;;;;;5030892;28;20065;-84
2022/07/22 00:59:32;;;;;;;2.97;1.58;;;25.00;59.70;;;;;;5042810;28;20050;-85
2022/07/22 01:01:59;;;;;;;2.70;1.38;;;24.90;59.40;;;;;;5014464;28;20041;-85
2022/07/22 01:04:27;;;;;;;3.72;1.42;;;24.80;59.30;;;;;;5018912;28;20513;-85
2022/07/22 01:06:55;;;;;;;4.97;1.13;;;24.80;59.60;;;;;;5027131;28;20041;-85
2022/07/22 01:09:22;;;;;;;4.43;1.33;;;24.90;58.80;;;;;;5013944;28;20045;-85
2022/07/22 01:11:50;;;;;;;3.90;1.45;;;24.90;58.50;;;;;;5041954;28;20156;-85
2022/07/22 01:14:17;;;;;;;3.42;1.10;;;24.80;59.70;;;;;;5013792;28;20046;-85
2022/07/22 01:16:44;;;;;;;3.80;1.20;;;24.80;59.20;;;;;;5022551;28;20494;-85
2022/07/22 01:19:16;;;;;;;4.13;1.40;;;24.70;60.00;;;;;;5013683;28;20038;-85
2022/07/22 01:21:43;;;;;;;4.00;1.40;;;24.70;59.50;;;;;;5028831;28;20453;-85
2022/07/22 01:24:11;;;;;;;3.38;1.10;;;24.70;60.60;;;;;;5014395;28;20061;-85
2022/07/22 01:26:38;;;;;;;3.53;1.35;;;24.70;60.80;;;;;;5005276;28;20083;-85
2022/07/22 01:29:07;;;;;;;2.90;1.38;;;24.60;61.70;;;;;;5006056;28;20046;-85
2022/07/22 01:31:34;;;;;;;3.40;1.52;;;24.60;60.30;;;;;;5016110;28;20054;-86
2022/07/22 01:34:02;;;;;;;4.63;2.22;;;24.60;61.40;;;;;;5031171;28;20068;-85
2022/07/22 01:36:34;;;;;;;5.10;1.13;;;24.60;60.20;;;;;;5010355;28;20038;-85
2022/07/22 01:39:03;;;;;;;2.72;1.50;;;24.60;61.50;;;;;;5031025;28;20042;-85
2022/07/22 01:41:31;;;;;;;2.03;1.42;;;24.60;59.40;;;;;;5030705;28;20038;-85
2022/07/22 01:43:59;;;;;;;2.85;1.40;;;24.60;59.40;;;;;;5048483;28;20041;-85
2022/07/22 01:46:26;;;;;;;2.97;1.10;;;24.50;59.80;;;;;;5024713;28;20049;-84
2022/07/22 01:48:55;;;;;;;3.38;1.60;;;24.50;60.10;;;;;;5007912;28;20041;-84
2022/07/22 01:51:28;;;;;;;3.33;1.08;;;24.40;60.30;;;;;;5029965;28;20049;-85
2022/07/22 01:53:55;;;;;;;3.20;1.27;;;24.30;59.50;;;;;;5031693;28;20069;-83
2022/07/22 01:56:23;;;;;;;3.55;1.25;;;24.10;59.50;;;;;;5029240;28;20064;-85
2022/07/22 01:58:50;;;;;;;3.67;1.20;;;24.10;59.40;;;;;;5032212;28;20041;-86
2022/07/22 02:01:24;;;;;;;4.63;1.70;;;24.10;58.80;;;;;;5023254;28;20286;-84
2022/07/22 02:03:53;;;;;;;2.10;0.85;;;24.10;58.90;;;;;;5031060;28;20076;-85
2022/07/22 02:06:20;;;;;;;4.00;1.08;;;24.10;58.70;;;;;;5016509;28;20041;-86
2022/07/22 02:08:48;;;;;;;2.63;0.95;;;24.10;59.80;;;;;;5023898;28;20054;-85
2022/07/22 02:11:26;;;;;;;3.80;1.13;;;24.10;60.40;;;;;;5029178;28;20068;-84
2022/07/22 02:13:55;;;;;;;4.47;1.05;;;24.10;60.70;;;;;;5018587;28;20041;-84
2022/07/22 02:16:24;;;;;;;3.22;1.00;;;24.00;59.20;;;;;;5028551;28;20500;-85
2022/07/22 02:18:53;;;;;;;7.47;1.42;;;24.00;58.70;;;;;;5011461;28;20136;-86
2022/07/22 02:21:21;;;;;;;3.63;1.10;;;24.00;59.20;;;;;;5041969;28;20041;-86
2022/07/22 02:23:52;;;;;;;3.73;1.63;;;24.00;59.40;;;;;;5031904;28;20401;-86
2022/07/22 02:26:20;;;;;;;3.67;1.00;;;24.00;60.30;;;;;;5033474;28;20053;-86
2022/07/22 02:28:48;;;;;;;3.47;1.00;;;23.90;59.80;;;;;;5015185;28;20053;-86
2022/07/22 02:31:16;;;;;;;2.85;1.15;;;23.90;60.20;;;;;;5024996;28;20128;-86
2022/07/22 02:33:43;;;;;;;6.00;1.20;;;23.90;60.40;;;;;;5029789;28;20045;-84
2022/07/22 02:36:11;;;;;;;4.97;1.98;;;23.90;60.30;;;;;;5030305;28;20079;-86
2022/07/22 02:38:39;;;;;;;3.85;1.50;;;23.90;61.00;;;;;;5031329;28;20092;-86
2022/07/22 02:41:07;;;;;;;4.43;1.20;;;23.90;60.70;;;;;;5030962;28;20053;-86
2022/07/22 02:43:37;;;;;;;2.90;1.00;;;23.80;59.70;;;;;;5028169;28;20124;-85
2022/07/22 02:46:06;;;;;;;7.32;1.33;;;23.80;59.90;;;;;;4999344;28;20054;-86
2022/07/22 02:48:34;;;;;;;3.90;0.93;;;23.80;60.80;;;;;;5026268;28;20141;-86
2022/07/22 02:51:01;;;;;;;5.55;1.40;;;23.80;61.30;;;;;;5011092;28;20058;-86
2022/07/22 02:53:29;;;;;;;2.28;1.00;;;23.80;59.70;;;;;;5031159;28;20054;-86
2022/07/22 02:55:59;;;;;;;2.45;1.10;;;23.70;60.00;;;;;;5025702;28;20061;-86
2022/07/22 02:58:27;;;;;;;2.60;1.10;;;23.70;61.20;;;;;;5045924;28;20096;-87
2022/07/22 03:00:55;;;;;;;7.18;1.55;;;23.60;61.40;;;;;;5030880;28;20042;-86
2022/07/22 03:03:23;;;;;;;5.03;1.13;;;23.60;62.20;;;;;;5025359;28;20498;-86
2022/07/22 03:05:52;;;;;;;3.08;1.10;;;23.60;61.50;;;;;;5029240;28;20034;-86
2022/07/22 03:08:29;;;;;;;5.05;1.33;;;23.60;61.60;;;;;;5022650;28;20059;-85
2022/07/22 03:10:57;;;;;;;4.90;1.42;;;23.60;60.90;;;;;;5010473;28;20038;-85
2022/07/22 03:13:25;;;;;;;5.60;1.23;;;23.50;61.50;;;;;;5008773;28;20049;-86
2022/07/22 03:15:53;;;;;;;5.55;1.48;;;23.60;61.60;;;;;;5014297;28;20073;-86
2022/07/22 03:18:21;;;;;;;3.97;1.05;;;23.60;61.20;;;;;;5017958;28;20081;-85
2022/07/22 03:20:49;;;;;;;2.38;1.20;;;23.60;60.80;;;;;;5011030;28;20070;-85
2022/07/22 03:23:16;;;;;;;5.30;1.70;;;23.50;60.80;;;;;;5013228;28;20068;-86
2022/07/22 03:25:43;;;;;;;2.60;1.20;;;23.50;61.80;;;;;;5034012;28;20045;-86
2022/07/22 03:28:11;;;;;;;4.80;1.20;;;23.50;61.80;;;;;;5026774;28;20726;-86
2022/07/22 03:30:38;;;;;;;4.13;1.27;;;23.40;61.60;;;;;;5005817;28;20077;-86
2022/07/22 03:33:06;;;;;;;5.25;1.60;;;23.50;61.80;;;;;;5020687;28;20046;-86
2022/07/22 03:35:38;;;;;;;4.20;1.85;;;23.40;62.00;;;;;;5040948;28;20041;-86
2022/07/22 03:38:06;;;;;;;7.65;1.67;;;23.30;62.10;;;;;;5013643;28;20041;-86
2022/07/22 03:40:35;;;;;;;4.55;1.73;;;23.40;62.20;;;;;;5039275;28;20096;-86
2022/07/22 03:43:03;;;;;;;4.47;1.40;;;23.30;64.20;;;;;;5033271;28;20140;-86
2022/07/22 03:45:31;;;;;;;3.25;1.20;;;23.30;63.70;;;;;;5031319;28;20056;-87
2022/07/22 03:47:59;;;;;;;2.58;1.17;;;23.40;63.20;;;;;;5023162;28;20049;-85
2022/07/22 03:50:32;;;;;;;6.20;1.40;;;23.30;63.30;;;;;;5035196;28;20623;-86
2022/07/22 03:52:59;;;;;;;5.20;2.15;;;23.30;63.80;;;;;;5017938;28;20099;-86
2022/07/22 03:55:28;;;;;;;5.85;1.52;;;23.30;63.60;;;;;;5015215;28;20068;-87
2022/07/22 03:57:56;;;;;;;5.70;1.70;;;23.30;65.40;;;;;;5062143;28;20041;-87
2022/07/22 04:00:28;;;;;;;8.63;1.70;;;23.30;65.80;;;;;;5034506;28;20045;-87
2022/07/22 04:02:57;;;;;;;5.82;1.50;;;23.30;67.70;;;;;;5027453;28;20042;-86
2022/07/22 04:05:43;;;;;;;6.00;1.70;;;23.40;65.60;;;;;;5022809;28;20052;-86
2022/07/22 04:08:12;;;;;;;4.05;1.60;;;23.50;65.10;;;;;;5024417;28;20532;-86
2022/07/22 04:10:40;;;;;;;4.53;1.58;;;23.50;65.60;;;;;;5031939;28;20057;-87
2022/07/22 04:13:07;;;;;;;12.80;3.05;;;23.50;64.90;;;;;;5035694;28;20052;-86
2022/07/22 04:15:44;;;;;;;8.02;2.20;;;23.50;67.60;;;;;;5014646;28;20060;-86
2022/07/22 04:18:12;;;;;;;5.90;1.58;;;23.50;67.70;;;;;;5027973;28;20042;-87
2022/07/22 04:20:40;;;;;;;5.20;1.75;;;23.50;67.50;;;;;;5009628;28;20041;-87
2022/07/22 04:23:28;;;;;;;6.05;1.73;;;23.60;67.00;;;;;;5022312;28;20125;-87
2022/07/22 04:26:11;;;;;;;7.13;2.25;;;23.60;66.50;;;;;;5027369;28;20056;-87
2022/07/22 04:28:39;;;;;;;7.20;2.05;;;23.70;68.00;;;;;;5009951;28;20052;-87
2022/07/22 04:31:06;;;;;;;3.83;1.50;;;23.80;66.90;;;;;;5027505;28;20048;-88
2022/07/22 04:33:37;;;;;;;6.72;1.63;;;23.90;66.40;;;;;;5015578;28;20050;-87
2022/07/22 04:36:05;;;;;;;6.88;1.63;;;23.90;61.90;;;;;;5030110;28;20040;-88
2022/07/22 04:38:34;;;;;;;3.13;1.40;;;24.00;61.70;;;;;;5016043;28;20045;-88
2022/07/22 04:41:04;;;;;;;5.43;1.30;;;24.10;61.50;;;;;;5032889;28;20037;-89
2022/07/22 04:43:32;;;;;;;6.20;1.10;;;24.10;61.90;;;;;;5020588;28;20042;-88
2022/07/22 04:45:59;;;;;;;6.72;1.17;;;24.20;58.40;;;;;;5013019;28;20107;-87
2022/07/22 04:48:31;;;;;;;5.72;1.27;;;24.20;57.90;;;;;;5010720;28;20063;-86
2022/07/22 04:51:00;;;;;;;3.63;1.10;;;24.30;59.50;;;;;;5012139;28;20495;-90
2022/07/22 04:53:29;;;;;;;3.33;0.80;;;24.30;56.30;;;;;;5009946;28;20054;-88
2022/07/22 04:56:18;;;;;;;3.42;0.70;;;24.30;55.70;;;;;;5008577;28;20056;-88
2022/07/22 04:58:46;;;;;;;5.72;1.45;;;24.40;55.60;;;;;;5036707;28;20041;-86
2022/07/22 05:01:14;;;;;;;4.80;1.02;;;24.50;57.00;;;;;;5007922;28;20057;-85
2022/07/22 05:03:46;;;;;;;3.25;1.13;;;24.60;57.40;;;;;;5026240;28;20135;-88
2022/07/22 05:06:14;;;;;;;4.78;1.33;;;24.70;57.70;;;;;;4998407;28;20498;-89
2022/07/22 05:08:43;;;;;;;5.35;1.10;;;24.80;58.10;;;;;;5042293;28;20128;-87
2022/07/22 05:11:11;;;;;;;3.55;1.00;;;24.80;55.70;;;;;;5015533;28;20094;-86
2022/07/22 05:13:39;;;;;;;8.55;1.52;;;25.00;57.80;;;;;;4996195;28;20045;-86
2022/07/22 05:16:08;;;;;;;6.95;1.65;;;25.00;57.10;;;;;;5012163;28;20042;-87
2022/07/22 05:18:37;;;;;;;2.95;1.13;;;25.10;56.20;;;;;;4995032;28;20056;-89
2022/07/22 05:21:07;;;;;;;3.78;0.50;;;25.30;55.50;;;;;;5060958;28;20064;-86
2022/07/22 05:23:34;;;;;;;2.42;0.60;;;25.40;54.40;;;;;;5023263;28;20136;-88
2022/07/22 05:26:03;;;;;;;4.82;1.10;;;25.60;53.90;;;;;;5022412;28;20830;-88
2022/07/22 05:28:31;;;;;;;2.67;0.55;;;25.70;54.10;;;;;;5010361;28;22600;-87
2022/07/22 05:30:58;;;;;;;6.45;1.10;;;25.90;54.90;;;;;;5022126;28;20049;-86
2022/07/22 05:33:27;;;;;;;3.22;0.80;;;26.10;54.70;;;;;;5011440;28;20053;-87
2022/07/22 05:35:57;;;;;;;4.68;0.73;;;26.20;52.20;;;;;;5025191;28;22022;-82
2022/07/22 05:38:32;;;;;;;2.38;0.65;;;26.30;52.00;;;;;;5021360;28;20061;-85
2022/07/22 05:41:01;;;;;;;5.50;0.60;;;26.50;53.50;;;;;;4995203;28;20060;-85
2022/07/22 05:43:32;;;;;;;4.93;1.02;;;26.60;52.20;;;;;;5010953;28;20719;-86
2022/07/22 05:46:01;;;;;;;4.13;0.40;;;26.70;51.10;;;;;;5012675;28;20061;-83
2022/07/22 05:48:28;;;;;;;2.38;0.75;;;26.80;50.90;;;;;;5024451;28;20861;-85
2022/07/22 05:50:56;;;;;;;2.75;0.50;;;27.00;50.70;;;;;;5004861;28;20065;-83
2022/07/22 05:53:23;;;;;;;3.92;0.82;;;27.20;50.40;;;;;;5041210;28;20239;-84
2022/07/22 05:55:51;;;;;;;4.25;0.50;;;27.30;50.70;;;;;;5051357;28;20068;-85
2022/07/22 05:58:18;;;;;;;3.67;0.75;;;27.40;49.80;;;;;;5008917;28;20096;-85
2022/07/22 06:00:46;;;;;;;5.82;0.60;;;27.60;50.90;;;;;;5059412;28;20045;-81
2022/07/22 06:03:13;;;;;;;4.70;0.60;;;27.80;50.30;;;;;;5020628;28;20044;-84
2022/07/22 06:05:45;;;;;;;7.75;0.93;;;27.90;47.80;;;;;;4996971;28;20056;-86
2022/07/22 06:08:13;;;;;;;1.17;0.43;;;28.00;48.60;;;;;;5022049;28;20052;-85
2022/07/22 06:10:47;;;;;;;3.83;0.50;;;28.20;49.30;;;;;;5027834;28;20045;-85
2022/07/22 06:13:16;;;;;;;5.05;0.77;;;28.40;49.60;;;;;;5029002;28;20540;-87
2022/07/22 06:15:44;;;;;;;3.88;0.70;;;28.50;48.50;;;;;;5012742;28;20049;-85
2022/07/22 06:18:13;;;;;;;1.17;0.43;;;28.70;49.90;;;;;;5002201;28;20045;-85
2022/07/22 06:20:41;;;;;;;3.08;0.75;;;28.80;48.90;;;;;;5025064;28;22612;-84
2022/07/22 06:23:08;;;;;;;1.20;0.40;;;28.60;47.40;;;;;;5027714;28;20054;-87
2022/07/22 06:25:36;;;;;;;3.67;0.57;;;28.50;48.40;;;;;;5011849;28;20041;-86
2022/07/22 06:28:18;;;;;;;2.97;0.68;;;28.40;47.90;;;;;;5020482;28;20057;-81
2022/07/22 06:30:46;;;;;;;2.35;0.50;;;28.40;48.30;;;;;;5022316;28;20061;-84
2022/07/22 06:33:14;;;;;;;4.63;0.75;;;28.50;46.80;;;;;;5030209;28;20107;-86
2022/07/22 06:35:42;;;;;;;2.90;0.70;;;28.60;47.50;;;;;;5016798;28;20081;-86
2022/07/22 06:38:10;;;;;;;2.58;0.57;;;28.60;48.70;;;;;;5026815;28;20130;-85
2022/07/22 06:41:13;;;;;;;3.95;0.80;;;28.50;47.70;;;;;;5052611;28;20060;-85
2022/07/22 06:43:52;;;;;;;2.55;0.75;;;28.80;48.00;;;;;;5025143;28;20052;-85
2022/07/22 06:46:39;;;;;;;2.13;0.60;;;29.30;47.40;;;;;;5021180;28;20142;-82
2022/07/22 06:49:08;;;;;;;3.50;0.50;;;29.60;47.80;;;;;;5013148;28;20046;-83
2022/07/22 06:51:40;;;;;;;1.67;0.43;;;29.80;47.20;;;;;;4994280;28;20056;-84
2022/07/22 06:54:08;;;;;;;3.28;0.50;;;29.80;43.90;;;;;;5040394;28;20132;-85
2022/07/22 06:56:36;;;;;;;3.13;0.60;;;29.80;45.50;;;;;;5006474;28;20267;-82
2022/07/22 06:59:04;;;;;;;1.45;0.40;;;29.80;45.90;;;;;;5024191;28;20045;-84
2022/07/22 07:01:32;;;;;;;2.33;0.40;;;29.80;45.10;;;;;;4994993;28;20054;-84
2022/07/22 07:04:01;;;;;;;1.10;0.40;;;29.90;45.50;;;;;;4993365;28;20118;-85
2022/07/22 07:06:29;;;;;;;1.42;0.57;;;30.00;44.80;;;;;;5003145;28;20045;-83
2022/07/22 07:09:04;;;;;;;1.73;0.65;;;30.20;45.10;;;;;;5007856;28;20050;-83
2022/07/22 07:11:32;;;;;;;1.63;0.52;;;29.90;46.10;;;;;;5007933;28;20489;-85
2022/07/22 07:14:04;;;;;;;1.67;0.40;;;29.60;44.50;;;;;;5004650;28;20061;-83
2022/07/22 07:16:32;;;;;;;3.70;0.73;;;29.40;45.90;;;;;;5018224;28;20057;-84
2022/07/22 07:18:59;;;;;;;1.77;0.70;;;29.30;44.60;;;;;;5033620;28;20057;-85
2022/07/22 07:21:28;;;;;;;2.08;0.40;;;29.40;45.70;;;;;;5037177;28;20136;-85
2022/07/22 07:23:55;;;;;;;1.88;0.50;;;29.70;45.30;;;;;;5012902;28;20922;-84
2022/07/22 07:26:25;;;;;;;1.90;0.43;;;30.00;44.70;;;;;;5021806;28;20049;-82
2022/07/22 07:28:53;;;;;;;6.03;1.00;;;30.40;47.00;;;;;;5036999;28;21669;-85
2022/07/22 07:31:37;;;;;;;2.50;0.40;;;30.40;43.40;;;;;;5015756;28;22065;-83
2022/07/22 07:34:11;;;;;;;1.30;0.43;;;30.20;43.70;;;;;;5021602;28;20674;-85
2022/07/22 07:36:39;;;;;;;3.35;0.40;;;30.00;43.80;;;;;;5025031;28;20059;-85
2022/07/22 07:39:08;;;;;;;4.47;0.35;;;29.80;44.50;;;;;;5013322;28;20050;-85
2022/07/22 07:41:36;;;;;;;2.42;0.50;;;29.60;46.00;;;;;;5025329;28;20084;-85
2022/07/22 07:44:03;;;;;;;2.53;0.50;;;29.60;44.30;;;;;;4997682;28;20454;-84
2022/07/22 07:46:31;;;;;;;0.80;0.30;;;29.80;45.00;;;;;;4995193;28;20065;-83
2022/07/22 07:48:59;;;;;;;2.25;0.40;;;30.20;44.20;;;;;;5024276;28;20045;-83
2022/07/22 07:51:27;;;;;;;1.33;0.38;;;30.60;43.00;;;;;;5030722;28;20094;-85
2022/07/22 07:53:55;;;;;;;3.10;0.40;;;30.80;41.00;;;;;;5028795;28;20414;-85
2022/07/22 07:56:23;;;;;;;3.25;0.50;;;31.00;40.30;;;;;;5053157;28;20440;-84
2022/07/22 07:58:50;;;;;;;2.30;0.30;;;31.20;43.10;;;;;;4996223;28;20147;-85
2022/07/22 08:01:39;;;;;;;2.65;0.40;;;31.30;42.40;;;;;;5053972;28;20067;-85
2022/07/22 08:04:25;;;;;;;1.67;0.57;;;31.40;42.00;;;;;;4996781;28;20203;-84
2022/07/22 08:07:13;;;;;;;2.35;0.52;;;31.50;40.80;;;;;;5043601;28;20115;-84
2022/07/22 08:09:43;;;;;;;4.20;0.57;;;31.60;41.20;;;;;;5028787;28;20053;-86
2022/07/22 08:12:30;;;;;;;3.90;1.08;;;31.90;41.60;;;;;;5030978;28;20087;-83
2022/07/22 08:15:28;;;;;;;3.05;0.52;;;32.00;42.80;;;;;;5028852;28;20061;-84
2022/07/22 08:17:57;;;;;;;2.63;0.40;;;31.80;42.60;;;;;;4999240;28;20095;-85
2022/07/22 08:20:25;;;;;;;4.45;0.77;;;31.60;42.30;;;;;;5029758;28;20053;-85
2022/07/22 08:22:53;;;;;;;0.88;0.38;;;31.70;41.20;;;;;;5041103;28;20065;-85
2022/07/22 08:25:23;;;;;;;1.88;0.50;;;31.70;41.30;;;;;;5024773;28;20206;-85
2022/07/22 08:27:50;;;;;;;3.83;0.60;;;31.80;42.00;;;;;;5057347;28;20045;-85
2022/07/22 08:30:19;;;;;;;2.83;0.40;;;31.80;40.30;;;;;;5031317;28;20040;-84
2022/07/22 08:32:47;;;;;;;1.13;0.47;;;31.90;40.50;;;;;;5013039;28;20063;-86
2022/07/22 08:35:16;;;;;;;3.83;0.38;;;31.90;41.00;;;;;;5044006;28;20045;-86
2022/07/22 08:37:45;;;;;;;3.15;0.40;;;31.90;41.20;;;;;;5030391;28;20131;-85
2022/07/22 08:40:15;;;;;;;2.42;0.52;;;32.00;40.00;;;;;;5008682;28;20045;-85
2022/07/22 08:42:46;;;;;;;1.90;0.50;;;32.00;39.00;;;;;;4998661;28;20050;-85
2022/07/22 08:45:15;;;;;;;2.35;0.65;;;32.10;40.60;;;;;;5030227;28;20055;-85
2022/07/22 08:47:50;;;;;;;5.20;0.30;;;32.30;39.40;;;;;;5011569;28;20049;-85
2022/07/22 08:50:31;;;;;;;2.30;0.63;;;32.30;39.70;;;;;;4996454;28;20100;-84
2022/07/22 08:53:11;;;;;;;2.70;0.45;;;32.30;39.60;;;;;;5012991;28;20140;-85
2022/07/22 08:55:44;;;;;;;4.80;0.57;;;32.40;39.00;;;;;;5034368;28;20536;-84
2022/07/22 08:58:13;;;;;;;1.42;0.43;;;32.70;39.20;;;;;;5045768;28;20102;-84
2022/07/22 09:00:40;;;;;;;3.05;0.43;;;32.50;39.30;;;;;;5028834;28;20053;-86
2022/07/22 09:03:25;;;;;;;2.35;0.50;;;32.60;39.90;;;;;;5024742;28;20053;-85
2022/07/22 09:05:55;;;;;;;2.75;0.40;;;32.60;39.30;;;;;;4998401;28;20390;-84
2022/07/22 09:08:23;;;;;;;1.25;0.57;;;32.60;39.70;;;;;;4992829;28;20096;-84
2022/07/22 09:11:17;;;;;;;4.47;0.50;;;32.50;40.60;;;;;;5023850;28;20048;-86
2022/07/22 09:13:51;;;;;;;2.90;0.50;;;32.30;40.00;;;;;;5011636;28;20068;-87
2022/07/22 09:16:48;;;;;;;2.72;0.70;;;32.10;39.80;;;;;;5049623;28;20151;-86
2022/07/22 09:19:52;;;;;;;1.83;0.63;;;32.20;39.20;;;;;;4958372;28;20062;-85
2022/07/22 09:22:35;;;;;;;3.05;0.40;;;32.50;40.20;;;;;;5005361;28;20053;-85
2022/07/22 09:25:21;;;;;;;2.88;0.40;;;32.60;39.10;;;;;;5005351;28;20049;-85
2022/07/22 09:28:07;;;;;;;;;;;32.70;39.10;;;;;;5038892;28;20095;-85
2022/07/22 09:30:56;;;;;;;1.83;0.47;;;32.80;39.70;;;;;;5011995;28;20024;-86
2022/07/22 09:33:28;;;;;;;3.22;0.80;;;32.70;38.40;;;;;;5027717;28;20053;-84
2022/07/22 09:36:13;;;;;;;1.17;0.57;;;32.60;37.80;;;;;;5005746;28;20052;-83
2022/07/22 09:38:42;;;;;;;2.47;0.50;;;32.80;38.90;;;;;;5023720;28;20522;-83
2022/07/22 09:41:09;;;;;;;3.35;0.70;;;32.90;39.70;;;;;;5004557;28;20096;-85
2022/07/22 09:43:37;;;;;;;2.17;0.47;;;32.90;37.90;;;;;;5001403;28;20057;-84
2022/07/22 09:46:06;;;;;;;3.67;0.68;;;33.00;39.90;;;;;;5024452;28;20057;-86
2022/07/22 09:48:55;;;;;;;2.17;0.60;;;32.90;38.40;;;;;;5040664;28;20057;-85
2022/07/22 09:51:42;;;;;;;1.85;0.80;;;32.80;39.60;;;;;;5037382;28;20060;-91
2022/07/22 09:54:18;;;;;;;3.25;0.80;;;33.00;38.60;;;;;;5010813;28;20054;-85
2022/07/22 09:56:46;;;;;;;1.70;0.50;;;32.90;38.20;;;;;;5034899;28;20053;-85
2022/07/22 09:59:16;;;;;;;2.78;0.93;;;33.00;39.50;;;;;;5011135;28;22127;-85
2022/07/22 10:01:55;;;;;;;2.88;0.93;;;33.00;38.60;;;;;;5015758;28;20107;-82
2022/07/22 10:04:24;;;;;;;1.40;0.88;;;33.10;39.40;;;;;;5022928;28;20053;-83
2022/07/22 10:06:54;;;;;;;3.80;1.13;;;33.00;39.30;;;;;;4992941;28;20402;-83
2022/07/22 10:09:26;;;;;;;3.30;1.23;;;33.10;39.40;;;;;;5030660;28;20048;-86
2022/07/22 10:11:54;;;;;;;2.92;0.60;;;33.10;39.00;;;;;;5022167;28;20068;-89
2022/07/22 10:14:24;;;;;;;3.13;0.77;;;33.10;39.40;;;;;;4998074;28;20056;-82
2022/07/22 10:16:56;;;;;;;4.05;0.88;;;33.00;39.00;;;;;;5022465;28;20057;-81
2022/07/22 10:19:29;;;;;;;3.83;1.20;;;33.10;40.40;;;;;;5008783;28;20143;-80
2022/07/22 10:21:57;;;;;;;5.15;1.10;;;33.10;38.30;;;;;;4995700;28;20058;-81
2022/07/22 10:24:30;;;;;;;4.55;0.82;;;33.10;38.60;;;;;;4977259;28;20199;-81
2022/07/22 10:27:01;;;;;;;2.95;0.73;;;33.20;39.90;;;;;;4989276;28;20048;-82
2022/07/22 10:29:39;;;;;;;3.33;0.70;;;33.40;39.60;;;;;;5012788;28;21337;-83
2022/07/22 10:32:21;;;;;;;4.60;1.05;;;33.40;38.40;;;;;;5017991;28;20051;-82
2022/07/22 10:34:59;;;;;;;5.72;0.93;;;33.40;38.40;;;;;;5010113;28;20055;-81
2022/07/22 10:37:48;;;;;;;5.05;1.45;;;33.30;39.00;;;;;;5004882;28;20064;-81
2022/07/22 10:40:22;;;;;;;2.70;0.70;;;33.30;39.40;;;;;;5006631;28;20069;-80
2022/07/22 10:43:04;;;;;;;2.65;1.10;;;33.50;39.80;;;;;;5012708;28;20063;-83
2022/07/22 10:46:06;;;;;;;7.15;1.35;;;33.70;39.70;;;;;;5026568;28;20057;-83
2022/07/22 10:48:36;;;;;;;4.05;1.13;;;33.50;38.50;;;;;;5006126;28;20060;-81
2022/07/22 10:51:17;;;;;;;2.95;1.05;;;33.50;39.60;;;;;;5013512;28;22512;-84
2022/07/22 10:53:56;;;;;;;4.30;1.20;;;33.40;37.80;;;;;;5018066;28;21022;-83
2022/07/22 10:56:29;;;;;;;4.28;1.30;;;33.40;38.10;;;;;;4992733;28;20516;-86
2022/07/22 10:58:59;;;;;;;4.35;1.27;;;33.40;38.70;;;;;;4997439;28;20054;-85
2022/07/22 11:01:30;;;;;;;4.15;0.95;;;33.40;38.80;;;;;;5011748;28;20052;-85
2022/07/22 11:04:27;;;;;;;1.80;1.42;;;33.60;39.50;;;;;;5024523;28;20044;-84
2022/07/22 11:06:57;;;;;;;6.05;1.45;;;33.60;38.90;;;;;;5013435;28;20089;-84
2022/07/22 11:09:34;;;;;;;5.47;1.10;;;33.60;39.50;;;;;;5037263;28;20052;-85
2022/07/22 11:12:02;;;;;;;4.80;1.02;;;33.70;39.70;;;;;;4990016;28;20042;-85
2022/07/22 11:14:33;;;;;;;5.40;1.02;;;33.80;39.10;;;;;;4984945;28;20056;-82
2022/07/22 11:17:08;;;;;;;4.25;1.10;;;33.70;38.60;;;;;;4981544;28;22961;-84
2022/07/22 11:19:39;;;;;;;5.38;1.35;;;33.80;38.70;;;;;;4982256;28;20049;-83
2022/07/22 11:22:12;;;;;;;4.88;1.38;;;33.80;39.00;;;;;;5005000;28;20056;-84
2022/07/22 11:24:41;;;;;;;3.65;1.35;;;33.80;39.80;;;;;;4991701;28;20056;-84
2022/07/22 11:27:17;;;;;;;3.13;1.20;;;33.90;39.60;;;;;;5021670;28;20465;-83
2022/07/22 11:29:49;;;;;;;5.63;1.55;;;33.70;38.80;;;;;;5025762;28;20133;-84
2022/07/22 11:32:17;;;;;;;2.30;1.40;;;33.80;39.40;;;;;;4992202;28;20050;-84
2022/07/22 11:34:46;;;;;;;4.15;0.93;;;34.10;40.60;;;;;;5006347;28;20045;-83
2022/07/22 11:37:16;;;;;;;5.07;1.25;;;34.20;39.80;;;;;;5007051;28;20042;-82
2022/07/22 11:39:44;;;;;;;3.42;1.00;;;34.20;39.30;;;;;;5010427;28;20050;-81
2022/07/22 11:42:13;;;;;;;4.65;0.98;;;34.20;40.10;;;;;;5005814;28;20486;-82
2022/07/22 11:44:40;;;;;;;2.35;1.10;;;34.20;38.90;;;;;;5030063;28;20080;-83
2022/07/22 11:47:09;;;;;;;4.35;1.40;;;34.20;38.60;;;;;;5032005;28;20055;-84
2022/07/22 11:49:39;;;;;;;3.67;1.08;;;34.10;38.40;;;;;;5032201;28;20362;-82
2022/07/22 11:52:11;;;;;;;2.40;1.38;;;34.10;38.70;;;;;;5006048;28;20148;-85
2022/07/22 11:54:44;;;;;;;2.92;1.08;;;34.30;39.90;;;;;;5019088;28;20045;-82
2022/07/22 11:57:13;;;;;;;1.73;1.05;;;34.40;39.60;;;;;;5039912;28;20042;-81
2022/07/22 11:59:41;;;;;;;3.58;1.20;;;34.40;39.10;;;;;;5034790;28;20084;-85
2022/07/22 12:02:11;;;;;;;3.55;1.50;;;34.50;38.60;;;;;;5029189;28;20495;-84
2022/07/22 12:04:39;;;;;;;2.65;1.40;;;34.50;40.10;;;;;;5028056;28;20050;-83
2022/07/22 12:07:10;;;;;;;3.10;1.13;;;34.40;38.80;;;;;;5031275;28;20060;-84
2022/07/22 12:09:41;;;;;;;2.53;1.00;;;34.40;39.10;;;;;;5028535;28;20148;-83
2022/07/22 12:12:08;;;;;;;4.55;1.30;;;34.40;39.80;;;;;;5012652;28;20052;-83
2022/07/22 12:14:36;;;;;;;2.78;1.17;;;34.30;40.20;;;;;;5045888;28;20050;-86
2022/07/22 12:17:10;;;;;;;7.78;1.15;;;34.30;38.50;;;;;;5027027;28;20080;-82
2022/07/22 12:19:40;;;;;;;2.88;1.88;;;34.40;38.40;;;;;;5021534;28;20049;-82
2022/07/22 12:22:10;;;;;;;4.10;1.50;;;34.30;39.10;;;;;;5012525;28;20490;-82
2022/07/22 12:24:41;;;;;;;4.30;0.90;;;34.50;38.50;;;;;;5033258;28;20053;-84
2022/07/22 12:27:10;;;;;;;4.85;1.48;;;34.70;40.00;;;;;;5029199;28;20064;-84
2022/07/22 12:29:38;;;;;;;3.75;1.42;;;34.70;39.40;;;;;;5026699;28;20822;-84
2022/07/22 12:32:24;;;;;;;3.78;1.40;;;34.70;40.90;;;;;;5028262;28;20084;-82
2022/07/22 12:34:54;;;;;;;2.97;1.40;;;34.70;39.70;;;;;;5028254;28;20132;-84
2022/07/22 12:37:26;;;;;;;6.88;2.20;;;34.60;39.10;;;;;;5038507;28;20050;-82
2022/07/22 12:39:56;;;;;;;2.65;1.23;;;34.70;39.70;;;;;;5026917;28;20536;-84
2022/07/22 12:42:29;;;;;;;6.45;2.03;;;34.70;39.40;;;;;;5031417;28;20038;-83
2022/07/22 12:45:03;;;;;;;4.22;1.45;;;34.70;38.10;;;;;;5033120;28;20579;-84
2022/07/22 12:47:51;;;;;;;1.65;1.20;;;34.60;38.90;;;;;;5022758;28;20068;-83
2022/07/22 12:50:23;;;;;;;5.30;1.52;;;34.60;38.80;;;;;;5044021;28;20055;-83
2022/07/22 12:52:53;;;;;;;4.60;1.40;;;34.70;38.80;;;;;;4999831;28;20044;-83
2022/07/22 12:55:55;;;;;;;4.78;1.42;;;34.70;39.90;;;;;;5027701;28;20044;-84
2022/07/22 12:58:27;;;;;;;3.90;1.40;;;34.70;38.70;;;;;;5014731;28;20508;-84
2022/07/22 13:00:57;;;;;;;4.80;1.60;;;34.70;40.00;;;;;;5041628;28;20049;-84
2022/07/22 13:03:26;;;;;;;6.75;1.95;;;34.90;40.30;;;;;;5029108;28;20046;-83
2022/07/22 13:05:57;;;;;;;2.88;1.50;;;34.90;39.80;;;;;;5032314;28;20042;-83
2022/07/22 13:08:25;;;;;;;5.10;1.95;;;34.90;40.60;;;;;;5032792;28;20494;-83